Time;durP1;ratioP1;P1;durP2;ratioP2;P2;SDS_P1;SDS_P2;PMS_P1;PMS_P2;Temp;Humidity;BMP_temperature;BMP_pressure;BME280_temperature;BME280_humidity;BME280_pressure;Samples;Min_cycle;Max_cycle;Signal;HPM_P1;HPM_P2
2022/05/04 00:01:02;;;;;;;;;;;;;;;26.59;35.56;94127.88;4972675;28;9030;-67
2022/05/04 00:04:01;;;;;;;;;;;;;;;26.60;35.50;94129.38;4967701;28;7404;-68
2022/05/04 00:06:27;;;;;;;;;;;;;;;26.57;36.05;94125.66;4972262;28;9013;-68
2022/05/04 00:08:53;;;;;;;;;;;;;;;26.55;35.22;94125.41;4972173;28;9335;-68
2022/05/04 00:11:49;;;;;;;;;;;;;;;26.58;35.42;94127.13;4956903;28;9141;-68
2022/05/04 00:14:25;;;;;;;;;;;;;;;26.58;35.55;94131.88;4892365;29;9186;-68
2022/05/04 00:17:01;;;;;;;;;;;;;;;26.56;35.02;94128.91;4895451;29;7067;-68
2022/05/04 00:19:35;;;;;;;;;;;;;;;26.57;35.15;94130.41;4894598;29;7009;-68
2022/05/04 00:22:43;;;;;;;;;;;;;;;26.57;35.93;94124.88;4895511;29;9836;-68
2022/05/04 00:25:12;;;;;;;;;;;;;;;26.57;35.24;94122.13;4886439;29;9068;-67
2022/05/04 00:27:58;;;;;;;;;;;;;;;26.57;35.28;94122.13;4895555;29;7223;-67
2022/05/04 00:30:35;;;;;;;;;;;;;;;26.58;35.67;94118.09;4894310;29;9497;-67
2022/05/04 00:33:01;;;;;;;;;;;;;;;26.57;36.05;94124.88;4894889;29;8764;-67
2022/05/04 00:35:38;;;;;;;;;;;;;;;26.55;35.61;94122.66;4894460;29;7074;-68
2022/05/04 00:38:05;;;;;;;;;;;;;;;26.54;35.90;94120.41;4894446;29;9605;-67
2022/05/04 00:40:33;;;;;;;;;;;;;;;26.54;35.41;94120.41;4894425;29;7249;-67
2022/05/04 00:43:24;;;;;;;;;;;;;;;26.54;35.87;94125.94;4888762;29;7251;-67
2022/05/04 00:45:50;;;;;;;;;;;;;;;26.54;35.26;94120.41;4893723;29;7028;-67
2022/05/04 00:48:41;;;;;;;;;;;;;;;26.53;35.68;94124.44;4896373;29;9030;-67
2022/05/04 00:51:27;;;;;;;;;;;;;;;26.50;34.81;94128.25;4945051;28;9186;-67
2022/05/04 00:54:19;;;;;;;;;;;;;;;26.50;35.92;94131.00;4968370;28;8910;-67
2022/05/04 00:56:51;;;;;;;;;;;;;;;26.50;35.19;94134.50;4972878;28;6985;-67
2022/05/04 00:59:21;;;;;;;;;;;;;;;26.47;35.23;94123.78;4971808;28;9464;-67
2022/05/04 01:01:53;;;;;;;;;;;;;;;26.50;35.57;94122.72;4973949;28;9403;-67
2022/05/04 01:04:36;;;;;;;;;;;;;;;26.49;35.51;94118.50;4973026;28;8767;-67
2022/05/04 01:07:03;;;;;;;;;;;;;;;26.46;35.75;94123.03;4985960;28;9144;-67
2022/05/04 01:09:32;;;;;;;;;;;;;;;26.45;35.86;94123.53;4970878;28;9120;-68
2022/05/04 01:11:58;;;;;;;;;;;;;;;26.46;34.83;94130.56;4971845;28;9320;-68
2022/05/04 01:14:30;;;;;;;;;;;;;;;26.45;35.25;94129.06;4967977;28;9140;-68
2022/05/04 01:17:12;;;;;;;;;;;;;;;26.43;35.37;94134.34;4968342;28;8961;-67
2022/05/04 01:19:42;;;;;;;;;;;;;;;26.42;35.08;94127.38;4981399;28;9577;-67
2022/05/04 01:22:09;;;;;;;;;;;;;;;26.45;35.36;94123.53;4966573;28;7364;-67
2022/05/04 01:24:38;;;;;;;;;;;;;;;26.43;34.85;94128.84;4968394;28;7224;-68
2022/05/04 01:27:13;;;;;;;;;;;;;;;26.40;35.55;94122.38;4982835;28;7309;-69
2022/05/04 01:29:39;;;;;;;;;;;;;;;26.41;35.51;94123.09;4976370;28;7885;-68
2022/05/04 01:32:05;;;;;;;;;;;;;;;26.43;35.56;94121.31;4979691;28;7278;-67
2022/05/04 01:34:42;;;;;;;;;;;;;;;26.42;34.96;94124.59;4967475;28;7011;-67
2022/05/04 01:37:09;;;;;;;;;;;;;;;26.40;35.62;94127.16;4966581;28;7387;-67
2022/05/04 01:39:35;;;;;;;;;;;;;;;26.39;35.59;94126.38;4968636;28;7280;-68
2022/05/04 01:42:13;;;;;;;;;;;;;;;26.40;34.96;94124.38;4981273;28;8153;-68
2022/05/04 01:44:54;;;;;;;;;;;;;;;26.39;35.26;94129.16;4982514;28;9059;-68
2022/05/04 01:47:26;;;;;;;;;;;;;;;26.38;34.94;94115.88;4972619;28;8965;-68
2022/05/04 01:49:54;;;;;;;;;;;;;;;26.38;34.84;94124.16;4966224;28;7347;-68
2022/05/04 01:52:27;;;;;;;;;;;;;;;26.38;34.85;94130.41;4970600;28;7504;-68
2022/05/04 01:55:04;;;;;;;;;;;;;;;26.36;34.98;94129.47;4981648;28;7058;-67
2022/05/04 01:57:40;;;;;;;;;;;;;;;26.36;34.91;94132.22;4971297;28;7219;-67
2022/05/04 02:00:13;;;;;;;;;;;;;;;26.34;35.08;94127.19;4966554;28;9067;-67
2022/05/04 02:03:02;;;;;;;;;;;;;;;26.35;35.50;94125.19;4967782;28;7320;-67
2022/05/04 02:05:28;;;;;;;;;;;;;;;26.33;35.16;94136.00;4964834;28;9143;-66
2022/05/04 02:07:54;;;;;;;;;;;;;;;26.32;34.99;94137.28;4968564;28;7311;-66
2022/05/04 02:10:21;;;;;;;;;;;;;;;26.31;35.45;94138.53;4971314;28;9266;-67
2022/05/04 02:12:55;;;;;;;;;;;;;;;26.32;34.65;94132.50;4969940;28;8984;-67
2022/05/04 02:15:43;;;;;;;;;;;;;;;26.29;34.62;94141.06;4981117;28;7037;-67
2022/05/04 02:18:11;;;;;;;;;;;;;;;26.33;34.63;94138.75;4971258;28;7365;-67
2022/05/04 02:20:46;;;;;;;;;;;;;;;26.30;34.47;94129.53;4985649;28;8852;-67
2022/05/04 02:23:39;;;;;;;;;;;;;;;26.30;35.31;94135.03;4977021;28;9182;-67
2022/05/04 02:26:21;;;;;;;;;;;;;;;26.29;35.42;94130.03;4946404;29;9275;-66
2022/05/04 02:28:47;;;;;;;;;;;;;;;26.31;34.37;94136.53;4950285;28;9366;-67
2022/05/04 02:31:22;;;;;;;;;;;;;;;26.33;34.72;94130.50;4953257;28;9588;-67
2022/05/04 02:33:57;;;;;;;;;;;;;;;26.30;35.17;94126.00;4950488;28;7055;-67
2022/05/04 02:39:27;;;;;;;;;;;;;;;26.27;35.37;94132.59;4953705;28;7597;-67
2022/05/04 02:42:04;;;;;;;;;;;;;;;26.27;34.56;94129.81;4935117;29;7317;-67
2022/05/04 02:44:43;;;;;;;;;;;;;;;26.26;35.46;94126.31;4922262;29;9862;-67
2022/05/04 02:47:20;;;;;;;;;;;;;;;26.24;34.89;94133.63;4928338;28;7995;-67
2022/05/04 02:49:55;;;;;;;;;;;;;;;26.25;35.28;94133.13;4948347;28;9406;-67
2022/05/04 02:52:22;;;;;;;;;;;;;;;26.17;34.97;94124.69;4952732;28;7035;-67
2022/05/04 02:54:51;;;;;;;;;;;;;;;26.24;35.36;94141.88;4937473;28;7785;-67
2022/05/04 02:57:17;;;;;;;;;;;;;;;26.20;35.03;94128.41;4937273;28;6981;-67
2022/05/04 02:59:45;;;;;;;;;;;;;;;26.21;34.71;94140.19;4951618;28;9238;-66
2022/05/04 03:02:30;;;;;;;;;;;;;;;26.23;34.51;94134.91;4941878;28;8975;-66
2022/05/04 03:04:58;;;;;;;;;;;;;;;26.22;34.38;94133.38;4973786;28;9056;-66
2022/05/04 03:07:27;;;;;;;;;;;;;;;26.18;34.50;94139.22;4974288;28;8827;-67
2022/05/04 03:10:01;;;;;;;;;;;;;;;26.17;34.54;94135.69;4972336;28;9315;-67
2022/05/04 03:12:32;;;;;;;;;;;;;;;26.20;34.43;94136.69;4972609;28;7261;-67
2022/05/04 03:15:05;;;;;;;;;;;;;;;26.15;34.38;94135.47;4971576;28;9465;-66
2022/05/04 03:17:37;;;;;;;;;;;;;;;26.17;34.67;94127.44;4987390;28;9345;-67
2022/05/04 03:20:20;;;;;;;;;;;;;;;26.16;34.82;94136.97;4974188;28;7010;-66
2022/05/04 03:22:57;;;;;;;;;;;;;;;26.14;34.45;94133.97;4971197;28;8298;-66
2022/05/04 03:25:29;;;;;;;;;;;;;;;26.15;34.75;94138.25;4983973;28;9248;-67
2022/05/04 03:27:55;;;;;;;;;;;;;;;26.10;35.10;94130.78;4989780;28;7615;-67
2022/05/04 03:30:30;;;;;;;;;;;;;;;26.13;35.31;94140.00;4984337;28;9072;-67
2022/05/04 03:32:56;;;;;;;;;;;;;;;26.10;34.54;94133.53;4972493;28;7501;-66
2022/05/04 03:35:32;;;;;;;;;;;;;;;26.09;34.64;94126.53;4989438;28;8777;-66
2022/05/04 03:38:38;;;;;;;;;;;;;;;26.11;34.80;94140.53;4982951;28;7650;-67
2022/05/04 03:41:14;;;;;;;;;;;;;;;26.11;34.94;94128.78;4945020;28;9083;-67
2022/05/04 03:43:40;;;;;;;;;;;;;;;26.08;34.40;94138.03;4948857;28;9317;-67
2022/05/04 03:46:18;;;;;;;;;;;;;;;26.07;34.26;94125.53;4932026;28;7570;-67
2022/05/04 03:48:48;;;;;;;;;;;;;;;26.09;34.55;94137.56;4947850;28;7270;-66
2022/05/04 03:51:16;;;;;;;;;;;;;;;26.08;34.65;94138.03;4946180;28;9069;-67
2022/05/04 03:53:44;;;;;;;;;;;;;;;26.07;34.26;94145.59;4947201;28;7412;-66
2022/05/04 03:56:10;;;;;;;;;;;;;;;26.07;35.16;94140.06;4946744;28;9008;-67
2022/05/04 03:58:46;;;;;;;;;;;;;;;26.08;34.54;94133.31;4952434;28;9071;-67
2022/05/04 04:01:37;;;;;;;;;;;;;;;26.08;34.46;94144.34;4952701;28;9136;-67
2022/05/04 04:04:15;;;;;;;;;;;;;;;26.07;35.20;94142.81;4952463;28;7480;-67
2022/05/04 04:06:44;;;;;;;;;;;;;;;26.05;34.88;94142.59;4952772;28;7053;-66
2022/05/04 04:09:12;;;;;;;;;;;;;;;26.07;34.55;94140.06;4956834;28;7418;-66
2022/05/04 04:11:39;;;;;;;;;;;;;;;26.05;34.72;94139.84;4935870;28;9056;-67
2022/05/04 04:14:05;;;;;;;;;;;;;;;26.07;34.33;94145.59;4939748;28;9012;-67
2022/05/04 04:16:31;;;;;;;;;;;;;;;26.07;34.55;94144.84;4977617;28;9081;-67
2022/05/04 04:19:09;;;;;;;;;;;;;;;26.07;35.10;94151.09;4988704;28;8944;-67
2022/05/04 04:21:52;;;;;;;;;;;;;;;26.08;34.55;94160.09;4981752;28;8641;-67
2022/05/04 04:24:20;;;;;;;;;;;;;;;26.06;35.18;94149.59;4980996;28;7309;-68
2022/05/04 04:26:46;;;;;;;;;;;;;;;26.04;34.92;94149.38;4982266;28;7476;-68
2022/05/04 04:29:12;;;;;;;;;;;;;;;26.02;34.45;94151.91;4984560;28;7208;-68
2022/05/04 04:31:38;;;;;;;;;;;;;;;26.04;34.98;94152.13;4983272;28;7242;-68
2022/05/04 04:34:07;;;;;;;;;;;;;;;26.03;34.40;94160.91;4984725;28;9214;-68
2022/05/04 04:36:36;;;;;;;;;;;;;;;26.01;35.25;94158.66;4967490;28;7507;-68
2022/05/04 04:39:07;;;;;;;;;;;;;;;25.97;35.17;94158.22;4966661;28;7697;-69
2022/05/04 04:41:33;;;;;;;;;;;;;;;26.02;34.32;94160.16;4967356;28;7230;-68
2022/05/04 04:44:09;;;;;;;;;;;;;;;26.01;34.47;94160.69;4969825;28;7224;-68
2022/05/04 04:47:04;;;;;;;;;;;;;;;25.99;34.86;94163.94;4971932;28;9407;-67
2022/05/04 04:49:40;;;;;;;;;;;;;;;25.98;34.39;94162.47;4953482;28;8001;-67
2022/05/04 04:52:06;;;;;;;;;;;;;;;25.98;34.55;94159.72;4965546;28;8790;-67
2022/05/04 04:54:41;;;;;;;;;;;;;;;26.00;34.74;94157.19;4968604;28;7016;-68
2022/05/04 04:57:09;;;;;;;;;;;;;;;26.03;34.71;94155.41;4951123;28;9609;-67
2022/05/04 04:59:51;;;;;;;;;;;;;;;26.03;34.80;94161.66;4956822;28;8914;-67
2022/05/04 05:02:27;;;;;;;;;;;;;;;26.01;34.99;94168.97;4969666;28;7218;-68
2022/05/04 05:04:54;;;;;;;;;;;;;;;26.01;34.65;94164.19;4953446;28;9161;-67
2022/05/04 05:07:20;;;;;;;;;;;;;;;26.00;35.33;94173.72;4969398;28;6989;-68
2022/05/04 05:09:46;;;;;;;;;;;;;;;25.92;35.03;94161.03;4968943;28;9621;-68
2022/05/04 05:12:22;;;;;;;;;;;;;;;25.96;35.77;94167.75;4951937;28;9272;-65
2022/05/04 05:17:45;;;;;;;;;;;;;;;25.93;35.29;94170.78;4971484;28;9154;-66
2022/05/04 05:20:20;;;;;;;;;;;;;;;25.95;35.05;94166.25;4967883;28;8757;-68
2022/05/04 05:22:57;;;;;;;;;;;;;;;26.00;34.83;94170.22;4968025;28;7601;-68
2022/05/04 05:25:32;;;;;;;;;;;;;;;25.96;34.58;94167.00;4971716;28;7227;-68
2022/05/04 05:28:00;;;;;;;;;;;;;;;25.95;35.62;94165.50;4970558;28;9056;-70
2022/05/04 05:30:30;;;;;;;;;;;;;;;25.98;35.16;94170.75;4986259;28;7325;-71
2022/05/04 05:33:25;;;;;;;;;;;;;;;25.97;35.40;94166.47;4970584;28;7210;-71
2022/05/04 05:35:53;;;;;;;;;;;;;;;25.92;35.46;94170.06;4989410;28;7155;-71
2022/05/04 05:38:54;;;;;;;;;;;;;;;25.95;35.42;94171.75;4989431;28;7286;-70
2022/05/04 05:41:23;;;;;;;;;;;;;;;25.98;34.94;94167.22;4924585;29;7333;-71
2022/05/04 05:43:52;;;;;;;;;;;;;;;26.01;35.83;94169.69;4916169;29;9094;-70
2022/05/04 05:46:19;;;;;;;;;;;;;;;26.00;35.10;94167.47;4931996;29;9120;-70
2022/05/04 05:48:50;;;;;;;;;;;;;;;26.01;35.36;94175.19;4928237;29;7652;-70
2022/05/04 05:51:18;;;;;;;;;;;;;;;26.04;34.86;94173.41;4931462;29;7195;-70
2022/05/04 05:53:54;;;;;;;;;;;;;;;26.02;35.25;94167.69;4909139;29;7294;-70
2022/05/04 05:56:31;;;;;;;;;;;;;;;26.02;35.15;94173.94;4933270;28;8790;-70
2022/05/04 05:59:07;;;;;;;;;;;;;;;26.03;34.98;94171.94;4928738;29;8955;-71
2022/05/04 06:01:42;;;;;;;;;;;;;;;25.97;35.59;94166.47;4916914;29;7880;-71
2022/05/04 06:04:21;;;;;;;;;;;;;;;26.00;34.98;94170.97;4930642;29;8793;-71
2022/05/04 06:06:47;;;;;;;;;;;;;;;26.01;35.33;94174.47;4925323;29;7186;-71
2022/05/04 06:09:17;;;;;;;;;;;;;;;26.01;35.33;94175.19;4905109;29;7172;-71
2022/05/04 06:11:56;;;;;;;;;;;;;;;25.99;35.13;94169.47;4937646;28;7329;-71
2022/05/04 06:14:25;;;;;;;;;;;;;;;26.01;35.24;94174.47;4914755;29;7089;-70
2022/05/04 06:16:56;;;;;;;;;;;;;;;26.00;35.50;94179.22;4956051;28;9581;-70
2022/05/04 06:19:37;;;;;;;;;;;;;;;25.98;35.47;94184.53;4987402;28;7059;-71
2022/05/04 06:22:04;;;;;;;;;;;;;;;25.98;34.90;94181.75;4987457;28;9354;-71
2022/05/04 06:24:32;;;;;;;;;;;;;;;25.96;34.95;94192.56;4967836;28;7354;-70
2022/05/04 06:27:11;;;;;;;;;;;;;;;25.95;35.58;94185.53;4986475;28;7486;-70
2022/05/04 06:35:25;;;;;;;;;;;;;;;25.94;35.83;94191.59;4972590;28;7237;-70
2022/05/04 06:38:04;;;;;;;;;;;;;;;25.94;35.38;94189.56;4981262;28;9227;-70
2022/05/04 06:40:41;;;;;;;;;;;;;;;25.98;35.34;94195.53;4971217;28;9275;-70
2022/05/04 06:43:20;;;;;;;;;;;;;;;25.94;35.70;94197.84;4985216;28;7066;-71
2022/05/04 06:45:47;;;;;;;;;;;;;;;25.95;36.36;94193.81;4984087;28;9267;-70
2022/05/04 06:48:20;;;;;;;;;;;;;;;25.95;35.63;94199.31;4970774;28;9268;-70
2022/05/04 06:50:49;;;;;;;;;;;;;;;25.96;35.55;94211.09;4957782;28;7240;-71
2022/05/04 06:53:15;;;;;;;;;;;;;;;25.95;35.86;94215.84;4968962;28;9000;-71
2022/05/04 06:55:41;;;;;;;;;;;;;;;25.97;36.19;94207.06;4971698;28;7246;-70
2022/05/04 06:58:14;;;;;;;;;;;;;;;25.97;35.94;94215.34;4986100;28;6985;-70
2022/05/04 07:00:42;;;;;;;;;;;;;;;25.95;35.83;94210.34;4970819;28;7195;-70
2022/05/04 07:03:18;;;;;;;;;;;;;;;25.92;36.46;94211.41;4954471;28;7237;-70
2022/05/04 07:05:46;;;;;;;;;;;;;;;25.94;36.54;94216.38;4962574;28;7248;-71
2022/05/04 07:08:14;;;;;;;;;;;;;;;25.97;36.69;94220.84;4970773;28;8924;-71
2022/05/04 07:10:41;;;;;;;;;;;;;;;25.95;36.20;94218.63;4970606;28;7154;-68
2022/05/04 07:13:14;;;;;;;;;;;;;;;25.93;36.84;94212.88;4986702;28;9541;-68
2022/05/04 07:15:50;;;;;;;;;;;;;;;25.93;36.37;94203.84;4982096;28;7686;-68
2022/05/04 07:18:20;;;;;;;;;;;;;;;25.91;36.92;94209.13;4974305;28;7280;-68
2022/05/04 07:20:53;;;;;;;;;;;;;;;25.89;36.00;94204.16;4974375;28;7440;-68
2022/05/04 07:23:32;;;;;;;;;;;;;;;25.92;39.85;94205.88;4973477;28;9109;-67
2022/05/04 07:26:04;;;;;;;;;;;;;;;25.95;36.75;94204.84;4974291;28;9096;-67
2022/05/04 07:28:30;;;;;;;;;;;;;;;25.99;36.98;94202.53;4972059;28;7849;-67
2022/05/04 07:31:03;;;;;;;;;;;;;;;26.01;36.73;94205.50;4973941;28;9098;-67
2022/05/04 07:33:40;;;;;;;;;;;;;;;26.03;36.17;94202.97;4972243;28;7282;-67
2022/05/04 07:36:10;;;;;;;;;;;;;;;26.01;36.48;94194.50;4972139;28;9087;-68
2022/05/04 07:38:43;;;;;;;;;;;;;;;26.04;35.98;94200.97;4974498;28;9327;-69
2022/05/04 07:44:06;;;;;;;;;;;;;;;26.01;35.68;94202.03;4971776;28;7210;-70
2022/05/04 07:46:43;;;;;;;;;;;;;;;26.04;35.75;94198.22;4963965;28;9052;-70
2022/05/04 07:49:10;;;;;;;;;;;;;;;26.01;36.18;94202.75;4972907;28;9185;-70
2022/05/04 07:51:40;;;;;;;;;;;;;;;26.04;36.75;94200.97;4973017;28;9419;-70
2022/05/04 07:54:07;;;;;;;;;;;;;;;26.04;37.23;94206.50;4972909;28;9070;-70
2022/05/04 07:56:34;;;;;;;;;;;;;;;26.04;37.39;94212.75;4974041;28;9059;-70
2022/05/04 07:59:03;;;;;;;;;;;;;;;26.07;37.07;94205.47;4972127;28;8850;-70
2022/05/04 08:04:16;;;;;;;;;;;;;;;26.06;37.49;94207.47;4973885;28;9153;-70
2022/05/04 08:06:45;;;;;;;;;;;;;;;26.09;37.08;94212.00;4964752;28;7247;-70
2022/05/04 08:09:13;;;;;;;;;;;;;;;26.08;37.07;94213.25;4972785;28;8125;-70
2022/05/04 08:11:41;;;;;;;;;;;;;;;26.07;36.69;94211.72;4971915;28;7144;-71
2022/05/04 08:14:08;;;;;;;;;;;;;;;26.07;37.13;94211.72;4979361;28;7204;-70
2022/05/04 08:16:45;;;;;;;;;;;;;;;26.08;37.44;94213.25;4978191;28;9135;-70
2022/05/04 08:19:11;;;;;;;;;;;;;;;26.10;37.16;94209.97;4979286;28;9138;-70
2022/05/04 08:21:37;;;;;;;;;;;;;;;26.10;36.65;94210.72;4965515;28;9289;-70
2022/05/04 08:24:04;;;;;;;;;;;;;;;26.12;37.29;94215.72;4970398;28;7246;-71
2022/05/04 08:26:31;;;;;;;;;;;;;;;26.11;37.29;94209.47;4986460;28;6936;-71
2022/05/04 08:29:00;;;;;;;;;;;;;;;26.12;37.27;94212.97;4987523;28;6860;-71
2022/05/04 08:31:28;;;;;;;;;;;;;;;26.12;37.41;94219.19;4987703;28;6978;-70
2022/05/04 08:33:54;;;;;;;;;;;;;;;26.12;36.37;94212.97;4987484;28;6975;-71
2022/05/04 08:36:20;;;;;;;;;;;;;;;26.16;37.33;94213.41;4971931;28;9017;-71
2022/05/04 08:38:46;;;;;;;;;;;;;;;26.15;36.38;94211.91;4986487;28;7037;-71
2022/05/04 08:41:12;;;;;;;;;;;;;;;26.15;37.08;94211.91;4972665;28;9290;-71
2022/05/04 08:43:50;;;;;;;;;;;;;;;26.14;36.66;94216.66;4972355;28;7410;-70
2022/05/04 08:46:40;;;;;;;;;;;;;;;26.13;36.86;94215.19;4965718;28;7522;-71
2022/05/04 08:49:29;;;;;;;;;;;;;;;26.15;36.34;94212.66;4965571;28;9155;-70
2022/05/04 08:51:59;;;;;;;;;;;;;;;26.21;36.96;94214.63;4973788;28;7380;-71
2022/05/04 08:54:28;;;;;;;;;;;;;;;26.20;36.50;94211.09;4985723;28;7089;-71
2022/05/04 08:56:54;;;;;;;;;;;;;;;26.19;36.87;94214.41;4987149;28;9207;-70
2022/05/04 08:59:28;;;;;;;;;;;;;;;26.15;36.67;94212.66;4971665;28;9049;-71
2022/05/04 09:01:56;;;;;;;;;;;;;;;26.16;36.68;94208.63;4988388;28;8227;-70
2022/05/04 09:04:23;;;;;;;;;;;;;;;26.18;36.01;94208.13;4971193;28;7259;-71
2022/05/04 09:06:51;;;;;;;;;;;;;;;26.17;36.15;94196.34;4984295;28;7292;-71
2022/05/04 09:09:19;;;;;;;;;;;;;;;26.15;36.00;94201.63;4970028;28;7472;-71
2022/05/04 09:11:51;;;;;;;;;;;;;;;26.14;36.75;94199.41;4988926;28;7197;-70
2022/05/04 09:14:20;;;;;;;;;;;;;;;26.14;36.51;94202.88;4979788;28;7257;-71
2022/05/04 09:16:47;;;;;;;;;;;;;;;26.15;35.94;94201.63;4969853;28;7072;-71
2022/05/04 09:19:17;;;;;;;;;;;;;;;26.18;36.55;94199.84;4968725;28;7253;-70
2022/05/04 09:21:47;;;;;;;;;;;;;;;26.16;37.08;94197.59;4966321;28;7216;-71
2022/05/04 09:24:30;;;;;;;;;;;;;;;26.16;36.54;94185.84;4983205;28;7313;-72
2022/05/04 09:26:57;;;;;;;;;;;;;;;26.16;36.15;94183.81;4968302;28;8781;-71
2022/05/04 09:29:35;;;;;;;;;;;;;;;26.13;36.73;94193.16;4966644;28;7167;-71
2022/05/04 09:32:17;;;;;;;;;;;;;;;26.15;36.48;94187.09;4967687;28;8842;-70
2022/05/04 09:34:44;;;;;;;;;;;;;;;26.14;36.46;94189.09;4959327;28;7062;-70
2022/05/04 09:45:39;;;;;;;;;;;;;;;26.13;36.56;94181.38;4968231;28;7317;-71
2022/05/04 09:48:06;;;;;;;;;;;;;;;26.12;36.83;94186.13;4981416;28;8730;-71
2022/05/04 09:50:40;;;;;;;;;;;;;;;26.13;36.10;94182.13;4981604;28;7089;-71
2022/05/04 09:53:07;;;;;;;;;;;;;;;26.13;36.76;94189.63;4981330;28;9060;-71
2022/05/04 09:55:35;;;;;;;;;;;;;;;26.13;36.24;94181.38;4967552;28;9376;-71
2022/05/04 09:58:02;;;;;;;;;;;;;;;26.15;36.87;94179.59;4966298;28;9184;-71
2022/05/04 10:00:28;;;;;;;;;;;;;;;26.14;36.21;94171.84;4965325;28;7552;-71
2022/05/04 10:03:00;;;;;;;;;;;;;;;26.14;36.48;94178.09;4970039;28;7058;-71
2022/05/04 10:05:33;;;;;;;;;;;;;;;26.16;36.82;94169.31;4969850;28;7277;-73
2022/05/04 10:07:59;;;;;;;;;;;;;;;26.16;36.22;94172.78;4969163;28;9451;-71
2022/05/04 10:10:26;;;;;;;;;;;;;;;26.16;36.87;94158.28;4984954;28;8125;-71
2022/05/04 10:12:58;;;;;;;;;;;;;;;26.16;36.17;94164.53;4985509;28;6957;-72
2022/05/04 10:15:25;;;;;;;;;;;;;;;26.16;36.29;94164.53;4985784;28;8830;-71
2022/05/04 10:18:23;;;;;;;;;;;;;;;26.15;36.42;94165.06;4999829;23;7166;-62
2022/05/04 10:21:01;;;;;;;;;;;;;;;26.15;36.66;94152.03;4976919;28;6943;-63
2022/05/04 10:23:31;;;;;;;;;;;;;;;26.18;35.90;94153.00;4976493;28;7308;-63
2022/05/04 10:36:19;;;;;;;;;;;;;;;26.23;37.08;94138.38;4992985;28;6721;-63
2022/05/04 10:42:57;;;;;;;;;;;;;;;26.25;36.59;94151.66;4992815;28;7065;-61
2022/05/04 10:49:06;;;;;;;;;;;;;;;26.29;37.06;94143.84;4992862;28;6732;-63
2022/05/04 10:51:47;;;;;;;;;;;;;;;26.28;37.43;94136.81;4979586;28;7248;-63
2022/05/04 10:54:28;;;;;;;;;;;;;;;26.30;37.05;94137.03;4962966;28;9149;-63
2022/05/04 10:56:57;;;;;;;;;;;;;;;26.29;36.70;94135.56;4963726;28;7422;-63
2022/05/04 10:59:48;;;;;;;;;;;;;;;26.28;37.03;94136.81;4952756;28;9352;-63
2022/05/04 11:02:26;;;;;;;;;;;;;;;26.29;37.27;94138.31;4953901;28;9144;-63
2022/05/04 11:04:54;;;;;;;;;;;;;;;26.28;37.64;94128.53;4942582;28;9075;-63
2022/05/04 11:07:29;;;;;;;;;;;;;;;26.33;37.64;94136.00;4955120;28;9458;-62
2022/05/04 11:10:05;;;;;;;;;;;;;;;26.33;36.80;94128.50;4964263;28;6852;-63
2022/05/04 11:12:33;;;;;;;;;;;;;;;26.35;37.67;94131.47;4945784;28;8780;-63
2022/05/04 11:15:05;;;;;;;;;;;;;;;26.35;37.33;94130.72;4967655;28;9449;-62
2022/05/04 11:17:33;;;;;;;;;;;;;;;26.36;37.22;94123.94;4955090;28;7070;-63
2022/05/04 11:19:59;;;;;;;;;;;;;;;26.36;37.33;94129.47;4946795;28;7223;-63
2022/05/04 11:22:25;;;;;;;;;;;;;;;26.33;37.78;94125.72;4969521;28;8379;-63
2022/05/04 11:24:57;;;;;;;;;;;;;;;26.37;37.79;94125.41;4971051;28;8946;-62
2022/05/04 11:27:25;;;;;;;;;;;;;;;26.38;37.98;94124.16;4969881;28;7239;-62
2022/05/04 11:30:05;;;;;;;;;;;;;;;26.39;37.03;94122.88;4966075;28;7199;-62
2022/05/04 11:32:34;;;;;;;;;;;;;;;26.40;37.53;94132.66;4945348;28;7133;-62
2022/05/04 11:35:01;;;;;;;;;;;;;;;26.41;37.26;94128.63;4953907;28;6993;-62
2022/05/04 11:37:31;;;;;;;;;;;;;;;26.42;36.93;94124.59;4951485;28;9195;-63
2022/05/04 11:40:16;;;;;;;;;;;;;;;26.43;37.80;94126.06;4954832;28;7192;-63
2022/05/04 11:42:44;;;;;;;;;;;;;;;26.39;37.29;94120.13;4954424;28;9356;-63
2022/05/04 11:45:13;;;;;;;;;;;;;;;26.41;36.96;94123.09;4951571;28;7115;-63
2022/05/04 11:47:39;;;;;;;;;;;;;;;26.41;37.94;94123.84;4954530;28;6956;-62
2022/05/04 11:50:06;;;;;;;;;;;;;;;26.41;36.99;94140.41;4958578;28;9597;-63
2022/05/04 11:52:32;;;;;;;;;;;;;;;26.41;37.53;94126.63;4945991;28;9503;-63
2022/05/04 11:55:05;;;;;;;;;;;;;;;26.42;37.06;94125.34;4951644;28;7136;-62
2022/05/04 11:57:41;;;;;;;;;;;;;;;26.40;37.49;94125.13;4950111;28;7440;-62
2022/05/04 12:00:15;;;;;;;;;;;;;;;26.41;37.29;94128.63;4963481;28;9031;-62
2022/05/04 12:02:42;;;;;;;;;;;;;;;26.41;37.61;94129.38;4947953;28;9088;-63
2022/05/04 12:05:08;;;;;;;;;;;;;;;26.38;37.05;94121.41;4965209;28;9435;-63
2022/05/04 12:07:36;;;;;;;;;;;;;;;26.42;37.15;94124.59;4949763;28;8766;-62
2022/05/04 12:10:03;;;;;;;;;;;;;;;26.41;37.44;94129.38;4949666;28;7317;-63
2022/05/04 12:12:30;;;;;;;;;;;;;;;26.41;37.30;94123.84;4966055;28;9109;-63
2022/05/04 12:15:00;;;;;;;;;;;;;;;26.39;37.30;94120.88;4955896;28;9080;-63
2022/05/04 12:17:26;;;;;;;;;;;;;;;26.39;37.22;94120.13;4934631;28;9104;-63
2022/05/04 12:19:54;;;;;;;;;;;;;;;26.38;37.78;94119.38;4951583;28;7112;-63
2022/05/04 12:22:20;;;;;;;;;;;;;;;26.37;38.01;94117.16;4949106;28;9140;-62
2022/05/04 12:24:46;;;;;;;;;;;;;;;26.37;37.98;94111.63;4950262;28;7250;-63
2022/05/04 12:27:15;;;;;;;;;;;;;;;26.37;37.46;94109.63;4949474;28;9095;-62
2022/05/04 12:33:08;;;;;;;;;;;;;;;26.36;37.49;94108.13;4972112;28;7086;-63
2022/05/04 12:35:59;;;;;;;;;;;;;;;26.38;37.74;94124.16;4962565;28;9395;-63
2022/05/04 12:38:27;;;;;;;;;;;;;;;26.40;37.26;94116.13;4948542;28;9668;-63
2022/05/04 12:41:07;;;;;;;;;;;;;;;26.42;37.18;94108.06;4954894;28;9106;-63
2022/05/04 12:44:04;;;;;;;;;;;;;;;26.43;38.06;94104.03;4960779;28;7009;-62
2022/05/04 12:46:30;;;;;;;;;;;;;;;26.45;37.04;94099.47;4959625;28;7064;-63
2022/05/04 12:49:03;;;;;;;;;;;;;;;26.47;37.02;94098.97;4965320;28;7215;-62
2022/05/04 12:51:30;;;;;;;;;;;;;;;26.50;37.85;94097.91;4964642;28;8745;-63
2022/05/04 12:54:08;;;;;;;;;;;;;;;26.51;37.46;94093.91;4951875;28;9710;-62
2022/05/04 12:56:46;;;;;;;;;;;;;;;26.50;37.01;94087.63;4944529;28;8299;-63
2022/05/04 12:59:18;;;;;;;;;;;;;;;26.51;37.68;94093.91;4953555;28;9828;-63
2022/05/04 13:01:46;;;;;;;;;;;;;;;26.53;37.39;94092.09;4953016;28;7238;-63
2022/05/04 13:04:15;;;;;;;;;;;;;;;26.54;37.23;94092.81;4960515;28;7622;-63
2022/05/04 13:06:44;;;;;;;;;;;;;;;26.57;37.57;94097.31;4960445;28;7294;-62
2022/05/04 13:09:11;;;;;;;;;;;;;;;26.61;37.31;94098.50;4965444;28;9087;-62
2022/05/04 13:11:41;;;;;;;;;;;;;;;26.60;37.46;94088.00;4947907;28;7084;-63
2022/05/04 13:14:07;;;;;;;;;;;;;;;26.60;36.92;94088.00;4956021;28;7231;-64
2022/05/04 13:16:34;;;;;;;;;;;;;;;26.63;37.57;94084.91;4951688;28;8845;-63
2022/05/04 13:19:01;;;;;;;;;;;;;;;26.64;37.46;94082.91;4934941;28;7065;-64
2022/05/04 13:21:28;;;;;;;;;;;;;;;26.66;37.14;94092.16;4951403;28;6966;-63
2022/05/04 13:23:57;;;;;;;;;;;;;;;26.66;36.81;94086.63;4947225;28;9462;-63
2022/05/04 13:26:42;;;;;;;;;;;;;;;26.70;37.73;94094.59;4968421;28;9168;-63
2022/05/04 13:29:09;;;;;;;;;;;;;;;26.70;37.51;94092.59;4965722;28;9090;-63
2022/05/04 13:32:04;;;;;;;;;;;;;;;26.75;37.67;94091.03;4949115;28;7288;-63
2022/05/04 13:34:56;;;;;;;;;;;;;;;26.75;37.06;94091.78;4906618;29;8031;-64
2022/05/04 13:37:31;;;;;;;;;;;;;;;26.77;36.97;94105.06;4890698;29;9192;-63
2022/05/04 13:39:58;;;;;;;;;;;;;;;26.77;37.21;94103.03;4901741;29;9121;-64
2022/05/04 13:42:24;;;;;;;;;;;;;;;26.78;37.35;94107.28;4890895;29;8949;-64
2022/05/04 13:44:59;;;;;;;;;;;;;;;26.81;36.87;94113.78;4905134;29;8753;-64
2022/05/04 13:47:26;;;;;;;;;;;;;;;26.80;37.14;94110.25;4903098;29;9293;-63
2022/05/04 13:53:14;;;;;;;;;;;;;;;26.81;37.04;94111.00;4898777;29;9046;-63
2022/05/04 13:53:14;;;;;;;;;;;;;;;26.79;37.31;94119.81;4925203;29;8873;-63
2022/05/04 13:55:41;;;;;;;;;;;;;;;26.81;37.41;94116.53;4914895;29;7244;-63
2022/05/04 13:58:10;;;;;;;;;;;;;;;26.80;37.35;94115.03;4893676;29;7544;-62
2022/05/04 14:00:52;;;;;;;;;;;;;;;26.81;37.07;94116.53;4912213;29;8975;-63
2022/05/04 14:03:19;;;;;;;;;;;;;;;26.83;36.87;94119.50;4898089;29;8070;-63
2022/05/04 14:05:46;;;;;;;;;;;;;;;26.82;37.37;94132.56;4906667;29;7543;-63
2022/05/04 14:08:12;;;;;;;;;;;;;;;26.82;37.28;94135.31;4902078;29;6964;-63
2022/05/04 14:10:49;;;;;;;;;;;;;;;26.83;37.06;94141.59;4920791;28;8992;-62
2022/05/04 14:13:17;;;;;;;;;;;;;;;26.82;36.86;94138.06;4945566;28;7267;-63